createdAt,value
2023-01-04T00:00:00.177Z,1009.83
2023-01-04T00:05:00.131Z,1009.84
2023-01-04T00:10:00.160Z,1009.6
2023-01-04T00:15:00.113Z,1009.61
2023-01-04T00:20:00.117Z,1009.58
2023-01-04T00:25:00.188Z,1009.39
2023-01-04T00:30:00.130Z,1009.34
2023-01-04T00:35:00.140Z,1009.23
2023-01-04T00:40:00.150Z,1009.24
2023-01-04T00:45:00.137Z,1009.23
2023-01-04T00:50:00.117Z,1009.09
2023-01-04T00:55:00.159Z,1008.83
2023-01-04T01:00:00.192Z,1008.75
2023-01-04T01:05:00.150Z,1008.61
2023-01-04T01:10:00.141Z,1008.58
2023-01-04T01:15:00.654Z,1008.65
2023-01-04T01:20:00.101Z,1008.68
2023-01-04T01:25:00.141Z,1008.48
2023-01-04T01:30:00.138Z,1008.54
2023-01-04T01:35:00.138Z,1008.49
2023-01-04T01:40:00.104Z,1008.31
2023-01-04T01:45:00.124Z,1008.36
2023-01-04T01:50:00.109Z,1008.31
2023-01-04T01:55:00.133Z,1008.17
2023-01-04T02:00:00.182Z,1008.05
2023-01-04T02:05:00.127Z,1007.95
2023-01-04T02:10:00.188Z,1007.86
2023-01-04T02:15:00.150Z,1007.87
2023-01-04T02:20:00.106Z,1007.7
2023-01-04T02:25:00.114Z,1007.69
2023-01-04T02:30:00.143Z,1007.68
2023-01-04T02:35:00.128Z,1007.67
2023-01-04T02:40:00.113Z,1007.65
2023-01-04T02:45:00.125Z,1007.49
2023-01-04T02:50:05.705Z,1007.4
2023-01-04T02:55:00.107Z,1007.28
2023-01-04T03:00:00.157Z,1007.22
2023-01-04T03:05:00.142Z,1007.08
2023-01-04T03:10:00.131Z,1007.04
2023-01-04T03:15:00.105Z,1006.84
2023-01-04T03:20:00.116Z,1006.94
2023-01-04T03:25:00.141Z,1006.85
2023-01-04T03:30:00.134Z,1006.66
2023-01-04T03:35:00.123Z,1006.62
2023-01-04T03:40:00.133Z,1006.64
2023-01-04T03:45:04.511Z,1006.48
2023-01-04T03:50:00.133Z,1006.42
2023-01-04T03:55:00.113Z,1006.22
2023-01-04T04:00:00.124Z,1006.05
2023-01-04T04:05:00.126Z,1006.09
2023-01-04T04:10:00.194Z,1005.89
2023-01-04T04:15:00.096Z,1005.68
2023-01-04T04:20:00.150Z,1005.61
2023-01-04T04:25:00.143Z,1005.5
2023-01-04T04:30:00.227Z,1004.91
2023-01-04T04:35:00.136Z,1004.81
2023-01-04T04:40:00.184Z,1004.77
2023-01-04T04:45:00.118Z,1004.7
2023-01-04T04:50:00.148Z,1004.6
2023-01-04T04:55:00.148Z,1004.51
2023-01-04T05:00:00.123Z,1004.57
2023-01-04T05:05:00.102Z,1004.42
2023-01-04T05:10:00.127Z,1004.28
2023-01-04T05:15:00.135Z,1004.23
2023-01-04T05:20:00.121Z,1004.07
2023-01-04T05:25:00.123Z,1004.11
2023-01-04T05:30:00.232Z,1003.88
2023-01-04T05:35:00.121Z,1003.91
2023-01-04T05:40:00.215Z,1003.87
2023-01-04T05:45:00.112Z,1003.75
2023-01-04T05:50:00.179Z,1003.57
2023-01-04T05:55:00.123Z,1003.59
2023-01-04T06:00:00.172Z,1003.47
2023-01-04T06:05:00.120Z,1003.5
2023-01-04T06:10:00.162Z,1003.64
2023-01-04T06:15:00.129Z,1003.58
2023-01-04T06:20:00.158Z,1003.55
2023-01-04T06:25:00.174Z,1003.5
2023-01-04T06:30:00.197Z,1003.32
2023-01-04T06:35:00.113Z,1003.21
2023-01-04T06:40:00.117Z,1003.19
2023-01-04T06:45:00.120Z,1003.16
2023-01-04T06:50:00.195Z,1003.14
2023-01-04T06:55:00.106Z,1002.88
2023-01-04T07:00:00.157Z,1002.86
2023-01-04T07:05:00.195Z,1002.75
2023-01-04T07:10:03.785Z,1002.67
2023-01-04T07:15:00.141Z,1002.43
2023-01-04T07:20:00.200Z,1002.43
2023-01-04T07:25:00.125Z,1002.33
2023-01-04T07:30:00.190Z,1002.29
2023-01-04T07:35:00.131Z,1002.29
2023-01-04T07:40:00.117Z,1002.27
2023-01-04T07:45:00.129Z,1002.27
2023-01-04T07:50:00.168Z,1002.33
2023-01-04T07:55:00.134Z,1002.37
2023-01-04T08:00:00.161Z,1002.35
2023-01-04T08:05:00.402Z,1002.32
2023-01-04T08:10:00.157Z,1002.21
2023-01-04T08:15:00.122Z,1002
2023-01-04T08:20:00.157Z,1001.96
2023-01-04T08:25:00.136Z,1001.83
2023-01-04T08:30:00.190Z,1001.74
2023-01-04T08:35:00.112Z,1001.4
2023-01-04T08:40:00.155Z,1001.4
2023-01-04T08:45:00.297Z,1001.3
2023-01-04T08:50:03.431Z,1001.33
2023-01-04T08:55:00.124Z,1001.97
2023-01-04T09:00:00.137Z,1001.67
2023-01-04T09:05:00.278Z,1001.6
2023-01-04T09:10:00.158Z,1001.5
2023-01-04T09:15:00.120Z,1001.58
2023-01-04T09:20:00.119Z,1001.46
2023-01-04T09:25:00.165Z,1001.33
2023-01-04T09:30:00.143Z,1001.18
2023-01-04T09:35:00.137Z,1001.09
2023-01-04T09:40:00.164Z,1001.09
2023-01-04T09:45:28.072Z,1001.1
2023-01-04T09:50:00.180Z,1001.19
2023-01-04T09:55:02.698Z,1001.22
2023-01-04T10:00:00.110Z,1001.17
2023-01-04T10:05:00.134Z,1001.04
2023-01-04T10:10:00.140Z,1000.99
2023-01-04T10:15:00.126Z,1000.95
2023-01-04T10:25:00.107Z,1000.57
2023-01-04T10:30:00.147Z,1000.55
2023-01-04T10:35:00.181Z,1000.41
2023-01-04T10:40:00.131Z,1000.37
2023-01-04T10:45:04.972Z,1000.24
2023-01-04T10:50:00.152Z,1000.05
2023-01-04T10:55:00.148Z,1000.01
2023-01-04T11:00:00.149Z,999.93
2023-01-04T11:05:00.136Z,999.89
2023-01-04T11:10:00.135Z,999.79
2023-01-04T11:15:00.142Z,999.8
2023-01-04T11:20:00.167Z,999.65
2023-01-04T11:25:33.529Z,999.62
2023-01-04T11:30:00.179Z,999.38
2023-01-04T11:35:00.163Z,999.32
2023-01-04T11:40:00.139Z,999.04
2023-01-04T11:45:00.216Z,999.13
2023-01-04T11:50:00.154Z,999.03
2023-01-04T11:55:00.123Z,999.03
2023-01-04T12:00:00.117Z,998.82
2023-01-04T12:05:00.100Z,998.76
2023-01-04T12:10:00.193Z,998.82
2023-01-04T12:15:00.124Z,998.72
2023-01-04T12:20:00.120Z,998.68
2023-01-04T12:25:00.957Z,998.67
2023-01-04T12:30:00.312Z,998.75
2023-01-04T12:35:00.124Z,998.58
2023-01-04T12:40:00.120Z,998.55
2023-01-04T12:45:00.121Z,998.48
2023-01-04T12:50:00.194Z,998.35
2023-01-04T12:55:00.643Z,998.17
2023-01-04T13:00:00.165Z,998.36
2023-01-04T13:05:35.495Z,998.33
2023-01-04T13:10:00.142Z,998.19
2023-01-04T13:15:00.147Z,998.22
2023-01-04T13:40:00.173Z,997.59
2023-01-04T13:50:00.124Z,997.48
2023-01-04T13:55:00.168Z,997.29
2023-01-04T14:00:00.150Z,997.27
2023-01-04T14:05:00.076Z,997.25
2023-01-04T14:10:00.186Z,997.42
2023-01-04T14:15:00.066Z,997.31
2023-01-04T14:20:00.121Z,997.42
2023-01-04T14:25:15.538Z,997.28
2023-01-04T14:30:00.119Z,997.32
2023-01-04T14:35:00.101Z,997.22
2023-01-04T14:40:00.069Z,997.01
2023-01-04T14:45:00.034Z,996.88
2023-01-04T14:50:00.083Z,996.97
2023-01-04T14:55:00.120Z,997.06
2023-01-04T15:00:00.148Z,996.86
2023-01-04T15:05:00.077Z,997.07
2023-01-04T15:10:00.061Z,997.08
2023-01-04T15:15:00.118Z,997.08
2023-01-04T15:20:00.153Z,997
2023-01-04T15:25:00.142Z,996.91
2023-01-04T15:30:00.135Z,996.81
2023-01-04T15:35:00.118Z,996.95
2023-01-04T15:40:03.003Z,996.86
2023-01-04T15:45:00.112Z,996.83
2023-01-04T15:50:00.143Z,996.62
2023-01-04T15:55:00.135Z,996.2
2023-01-04T16:00:00.173Z,996.15
2023-01-04T16:05:00.152Z,995.81
2023-01-04T16:10:00.204Z,995.83
2023-01-04T16:15:00.124Z,995.79
2023-01-04T16:20:00.122Z,995.94
2023-01-04T16:25:10.232Z,996.02
2023-01-04T16:30:00.113Z,996.15
2023-01-04T16:35:00.118Z,996.24
2023-01-04T16:40:08.407Z,996.06
2023-01-04T16:45:00.103Z,996
2023-01-04T16:50:00.135Z,995.88
2023-01-04T16:55:00.134Z,995.74
2023-01-04T17:00:00.181Z,995.68
2023-01-04T17:05:00.119Z,995.6
2023-01-04T17:10:00.128Z,995.65
2023-01-04T17:15:24.125Z,995.54
2023-01-04T17:20:00.268Z,995.56
2023-01-04T17:25:00.162Z,995.5
2023-01-04T17:30:00.101Z,996.02
2023-01-04T17:35:00.103Z,995.55
2023-01-04T17:40:00.179Z,995.39
2023-01-04T17:45:00.166Z,995.26
2023-01-04T17:50:00.125Z,995.31
2023-01-04T17:55:00.111Z,995.19
2023-01-04T18:00:00.210Z,995.22
2023-01-04T18:05:00.125Z,995.17
2023-01-04T18:10:00.161Z,995.04
2023-01-04T18:15:00.130Z,995
2023-01-04T18:20:00.145Z,994.82
2023-01-04T18:25:00.125Z,994.79
2023-01-04T18:30:00.119Z,994.88
2023-01-04T18:35:00.126Z,994.72
2023-01-04T18:40:00.129Z,994.65
2023-01-04T18:45:00.117Z,994.64
2023-01-04T18:50:00.132Z,994.62
2023-01-04T18:55:00.112Z,994.53
2023-01-04T19:00:00.137Z,994.46
2023-01-04T19:05:00.114Z,994.33
2023-01-04T19:10:00.136Z,994.42
